createdAt,value
2019-06-26T00:00:16.392Z,97166.61
2019-06-26T00:01:25.575Z,97168.95
2019-06-26T00:02:32.861Z,97163.51
2019-06-26T00:03:40.941Z,97166.35
2019-06-26T00:04:48.152Z,97165.21
2019-06-26T00:05:56.145Z,97160.09
2019-06-26T00:07:03.343Z,97172.03
2019-06-26T00:08:11.351Z,97169.56
2019-06-26T00:09:18.652Z,97169.56
2019-06-26T00:10:26.653Z,97173.26
2019-06-26T00:11:33.878Z,97168.14
2019-06-26T00:12:41.884Z,97173.44
2019-06-26T00:13:49.116Z,97169.14
2019-06-26T00:14:57.131Z,97171.48
2019-06-26T00:16:04.384Z,97171.16
2019-06-26T00:17:12.413Z,97166.83
2019-06-26T00:18:19.609Z,97175.80
2019-06-26T00:19:28.602Z,97171.18
2019-06-26T00:20:36.993Z,97179.83
2019-06-26T00:21:44.999Z,97174.92
2019-06-26T00:22:52.209Z,97172.95
2019-06-26T00:24:00.238Z,97175.30
2019-06-26T00:25:07.941Z,97173.33
2019-06-26T00:30:07.385Z,97174.52
2019-06-26T00:31:16.495Z,97183.28
2019-06-26T00:32:24.659Z,97181.61
2019-06-26T00:33:33.559Z,97180.79
2019-06-26T00:34:41.688Z,97180.93
2019-06-26T00:35:50.532Z,97182.22
2019-06-26T00:36:57.774Z,97183.48
2019-06-26T00:38:06.846Z,97179.14
2019-06-26T00:39:14.059Z,97180.42
2019-06-26T00:40:22.076Z,97180.89
2019-06-26T00:41:29.288Z,97180.17
2019-06-26T00:42:37.323Z,97182.64
2019-06-26T00:43:44.520Z,97179.13
2019-06-26T00:44:52.589Z,97174.97
2019-06-26T00:46:00.846Z,97175.61
2019-06-26T00:47:08.928Z,97173.28
2019-06-26T00:48:16.171Z,97175.44
2019-06-26T00:49:24.232Z,97174.43
2019-06-26T00:50:31.443Z,97179.73
2019-06-26T00:51:39.451Z,97167.80
2019-06-26T00:52:46.660Z,97172.78
2019-06-26T00:53:54.668Z,97171.64
2019-06-26T00:55:01.883Z,97171.95
2019-06-26T00:56:09.966Z,97173.14
2019-06-26T00:57:18.221Z,97172.00
2019-06-26T00:58:26.252Z,97174.52
2019-06-26T00:59:33.427Z,97178.98
2019-06-26T01:00:48.458Z,97172.86
2019-06-26T01:01:55.704Z,97175.41
2019-06-26T01:03:03.755Z,97182.39
2019-06-26T01:04:15.467Z,97178.09
2019-06-26T01:05:23.474Z,97180.75
2019-06-26T01:06:45.971Z,97182.75
2019-06-26T01:07:53.965Z,97181.94
2019-06-26T01:09:01.176Z,97185.52
2019-06-26T01:10:13.364Z,97184.19
2019-06-26T01:11:21.760Z,97184.69
2019-06-26T01:12:29.757Z,97185.38
2019-06-26T01:13:36.991Z,97180.89
2019-06-26T01:14:45.004Z,97179.56
2019-06-26T01:15:52.223Z,97179.56
2019-06-26T01:17:00.259Z,97179.89
2019-06-26T01:18:07.535Z,97182.36
2019-06-26T01:19:15.748Z,97180.89
2019-06-26T01:20:23.280Z,97186.52
2019-06-26T01:21:31.797Z,97186.20
2019-06-26T01:22:39.076Z,97184.22
2019-06-26T01:23:47.108Z,97181.58
2019-06-26T01:24:54.352Z,97187.38
2019-06-26T01:26:02.405Z,97181.25
2019-06-26T01:27:09.596Z,97181.25
2019-06-26T01:28:17.618Z,97177.95
2019-06-26T01:29:24.847Z,97179.28
2019-06-26T01:30:32.838Z,97182.44
2019-06-26T01:31:40.076Z,97179.46
2019-06-26T01:32:48.067Z,97177.48
2019-06-26T01:33:55.276Z,97181.79
2019-06-26T01:35:03.270Z,97182.30
2019-06-26T01:36:10.529Z,97178.53
2019-06-26T01:37:18.488Z,97183.33
2019-06-26T01:38:25.698Z,97182.18
2019-06-26T01:39:33.716Z,97178.38
2019-06-26T01:40:40.939Z,97178.88
2019-06-26T01:41:48.937Z,97179.06
2019-06-26T01:42:56.131Z,97186.69
2019-06-26T01:44:14.292Z,97186.69
2019-06-26T01:45:14.286Z,97178.92
2019-06-26T01:46:22.293Z,97179.59
2019-06-26T01:47:29.517Z,97179.27
2019-06-26T01:48:37.524Z,97182.10
2019-06-26T01:49:44.736Z,97180.27
2019-06-26T01:50:52.725Z,97186.90
2019-06-26T01:51:59.935Z,97182.81
2019-06-26T01:53:07.948Z,97179.84
2019-06-26T01:54:15.152Z,97184.31
2019-06-26T01:55:23.144Z,97186.32
2019-06-26T01:56:30.367Z,97181.20
2019-06-26T01:57:38.377Z,97183.20
2019-06-26T01:58:45.586Z,97186.35
2019-06-26T01:59:53.585Z,97186.50
2019-06-26T02:01:00.801Z,97187.00
2019-06-26T02:02:08.883Z,97188.83
2019-06-26T02:03:16.167Z,97185.67
2019-06-26T02:04:24.189Z,97185.06
2019-06-26T02:05:31.440Z,97184.23
2019-06-26T02:06:39.438Z,97193.00
2019-06-26T02:07:46.647Z,97192.36
2019-06-26T02:08:54.637Z,97192.86
2019-06-26T02:10:01.863Z,97188.38
2019-06-26T02:11:10.142Z,97185.41
2019-06-26T02:12:17.365Z,97189.23
2019-06-26T02:13:25.490Z,97190.41
2019-06-26T02:14:33.316Z,97194.21
2019-06-26T02:15:41.321Z,97195.71
2019-06-26T02:16:48.550Z,97186.62
2019-06-26T02:17:56.568Z,97188.13
2019-06-26T02:19:04.998Z,97189.94
2019-06-26T02:20:13.284Z,97191.27
2019-06-26T02:21:20.510Z,97184.36
2019-06-26T02:22:28.530Z,97191.98
2019-06-26T02:23:35.785Z,97187.17
2019-06-26T02:24:43.776Z,97184.20
2019-06-26T02:25:51.023Z,97190.33
2019-06-26T02:26:59.120Z,97188.18
2019-06-26T02:28:06.323Z,97191.33
2019-06-26T02:29:14.360Z,97190.50
2019-06-26T02:30:22.081Z,97187.36
2019-06-26T02:31:30.072Z,97191.50
2019-06-26T02:32:37.287Z,97189.36
2019-06-26T02:33:45.294Z,97190.36
2019-06-26T02:34:52.512Z,97184.73
2019-06-26T02:36:00.508Z,97186.06
2019-06-26T02:37:07.700Z,97186.06
2019-06-26T02:38:15.693Z,97183.41
2019-06-26T02:39:22.901Z,97184.73
2019-06-26T02:40:30.969Z,97184.41
2019-06-26T02:41:38.239Z,97185.73
2019-06-26T02:42:46.245Z,97187.06
2019-06-26T02:43:53.461Z,97187.23
2019-06-26T02:45:01.461Z,97183.44
2019-06-26T02:46:08.701Z,97190.88
2019-06-26T02:47:20.076Z,97185.97
2019-06-26T02:48:25.687Z,97187.80
2019-06-26T02:49:33.683Z,97188.79
2019-06-26T02:50:40.918Z,97192.12
2019-06-26T02:51:48.947Z,97189.14
2019-06-26T02:52:56.239Z,97187.99
2019-06-26T02:54:04.261Z,97189.49
2019-06-26T02:55:11.686Z,97188.67
2019-06-26T02:56:19.687Z,97189.66
2019-06-26T02:57:26.871Z,97186.20
2019-06-26T02:58:34.897Z,97183.22
2019-06-26T02:59:42.098Z,97186.90
2019-06-26T03:00:50.106Z,97190.55
2019-06-26T03:01:57.327Z,97182.61
2019-06-26T03:03:05.374Z,97181.45
2019-06-26T03:04:12.592Z,97187.25
2019-06-26T03:05:20.599Z,97182.63
2019-06-26T03:06:27.873Z,97188.92
2019-06-26T03:07:35.921Z,97185.12
2019-06-26T03:08:43.171Z,97186.95
2019-06-26T03:09:51.171Z,97184.15
2019-06-26T03:10:58.389Z,97185.67
2019-06-26T03:12:06.396Z,97178.91
2019-06-26T03:13:13.603Z,97183.38
2019-06-26T03:14:21.640Z,97179.08
2019-06-26T03:15:28.880Z,97178.76
2019-06-26T03:16:36.976Z,97178.91
2019-06-26T03:17:54.785Z,97179.08
2019-06-26T03:18:53.892Z,97180.57
2019-06-26T03:20:01.142Z,97182.27
2019-06-26T03:21:10.304Z,97179.80
2019-06-26T03:22:17.516Z,97181.30
2019-06-26T03:23:25.561Z,97178.00
2019-06-26T03:24:32.747Z,97179.32
2019-06-26T03:25:40.828Z,97180.81
2019-06-26T03:26:48.041Z,97184.61
2019-06-26T03:27:56.328Z,97176.20
2019-06-26T03:29:03.526Z,97178.52
2019-06-26T03:30:12.543Z,97175.55
2019-06-26T03:31:19.765Z,97183.66
2019-06-26T03:32:27.786Z,97183.86
2019-06-26T03:33:35.013Z,97183.53
2019-06-26T03:34:43.016Z,97188.00
2019-06-26T03:35:50.238Z,97186.35
2019-06-26T03:36:58.260Z,97185.85
2019-06-26T03:38:05.545Z,97184.03
2019-06-26T03:39:13.534Z,97189.33
2019-06-26T03:40:20.851Z,97188.00
2019-06-26T03:41:28.844Z,97186.17
2019-06-26T03:42:36.219Z,97186.67
2019-06-26T03:43:44.259Z,97189.82
2019-06-26T03:44:51.447Z,97184.53
2019-06-26T03:45:59.483Z,97185.85
2019-06-26T03:47:06.699Z,97184.53
2019-06-26T03:48:14.688Z,97187.67
2019-06-26T03:49:21.899Z,97195.94
2019-06-26T03:50:29.908Z,97193.79
2019-06-26T03:51:37.144Z,97190.31
2019-06-26T03:52:45.166Z,97193.79
2019-06-26T03:53:52.421Z,97195.11
2019-06-26T03:55:00.432Z,97197.43
2019-06-26T03:56:07.697Z,97197.43
2019-06-26T03:57:15.732Z,97193.14
2019-06-26T03:58:22.959Z,97194.95
2019-06-26T03:59:30.984Z,97200.08
2019-06-26T04:00:41.737Z,97206.36
2019-06-26T04:01:49.798Z,97201.57
2019-06-26T04:02:57.018Z,97199.92
2019-06-26T04:04:05.030Z,97202.24
2019-06-26T04:05:12.224Z,97203.56
2019-06-26T04:06:20.216Z,97202.24
2019-06-26T04:07:27.438Z,97200.09
2019-06-26T04:08:35.443Z,97205.88
2019-06-26T04:09:42.659Z,97203.73
2019-06-26T04:10:50.664Z,97207.20
2019-06-26T04:11:57.927Z,97201.09
2019-06-26T04:13:07.549Z,97203.23
2019-06-26T04:14:14.766Z,97201.09
2019-06-26T04:15:22.766Z,97206.70
2019-06-26T04:16:30.001Z,97200.27
2019-06-26T04:17:38.982Z,97204.56
2019-06-26T04:18:46.203Z,97206.38
2019-06-26T04:19:54.229Z,97205.56
2019-06-26T04:21:01.527Z,97202.91
2019-06-26T04:22:09.550Z,97209.03
2019-06-26T04:23:16.852Z,97209.03
2019-06-26T04:24:24.855Z,97206.88
2019-06-26T04:25:32.079Z,97212.50
2019-06-26T04:26:40.099Z,97207.70
2019-06-26T04:27:47.332Z,97202.91
2019-06-26T04:28:55.331Z,97202.41
2019-06-26T04:30:02.638Z,97203.23
2019-06-26T04:31:23.154Z,97202.73
2019-06-26T04:32:30.381Z,97204.06
2019-06-26T04:33:38.402Z,97205.41
2019-06-26T04:34:45.595Z,97203.28
2019-06-26T04:35:53.603Z,97205.73
2019-06-26T04:37:00.828Z,97203.91
2019-06-26T04:38:08.855Z,97203.23
2019-06-26T04:39:16.060Z,97204.06
2019-06-26T04:40:24.173Z,97211.83
2019-06-26T04:41:31.402Z,97212.66
2019-06-26T04:42:39.441Z,97213.48
2019-06-26T04:43:46.736Z,97210.16
2019-06-26T04:44:54.742Z,97211.81
2019-06-26T04:46:01.957Z,97212.14
2019-06-26T04:47:09.971Z,97209.33
2019-06-26T04:48:17.171Z,97214.91
2019-06-26T04:49:25.397Z,97218.37
2019-06-26T04:50:32.584Z,97212.91
2019-06-26T04:51:40.588Z,97217.22
2019-06-26T04:52:47.814Z,97220.19
2019-06-26T04:53:55.896Z,97212.25
2019-06-26T04:55:03.214Z,97219.52
2019-06-26T04:56:11.211Z,97221.81
2019-06-26T04:57:19.390Z,97218.67
2019-06-26T04:58:27.428Z,97215.53
2019-06-26T04:59:34.657Z,97221.44
2019-06-26T05:00:43.650Z,97221.27
2019-06-26T05:01:50.896Z,97219.45
2019-06-26T05:03:00.507Z,97217.95
2019-06-26T05:04:07.747Z,97224.07
2019-06-26T05:05:16.335Z,97221.25
2019-06-26T05:06:23.564Z,97218.79
2019-06-26T05:07:31.585Z,97218.62
2019-06-26T05:08:38.800Z,97221.91
2019-06-26T05:09:46.830Z,97219.06
2019-06-26T05:10:54.044Z,97219.71
2019-06-26T05:12:02.057Z,97220.37
2019-06-26T05:13:09.273Z,97228.95
2019-06-26T05:14:17.297Z,97217.38
2019-06-26T05:15:24.600Z,97220.34
2019-06-26T05:16:32.586Z,97220.34
2019-06-26T05:17:39.830Z,97218.84
2019-06-26T05:18:48.928Z,97220.62
2019-06-26T05:19:56.126Z,97215.00
2019-06-26T05:21:04.179Z,97222.94
2019-06-26T05:22:11.417Z,97217.34
2019-06-26T05:23:19.422Z,97220.00
2019-06-26T05:24:26.650Z,97217.02
2019-06-26T05:25:34.644Z,97217.84
2019-06-26T05:26:41.852Z,97220.29
2019-06-26T05:27:49.877Z,97221.32
2019-06-26T05:28:57.091Z,97220.29
2019-06-26T05:30:06.394Z,97222.94
2019-06-26T05:31:13.606Z,97224.27
2019-06-26T05:32:21.628Z,97222.44
2019-06-26T05:33:28.889Z,97225.91
2019-06-26T05:34:36.938Z,97223.09
2019-06-26T05:35:44.190Z,97225.23
2019-06-26T05:36:52.210Z,97226.39
2019-06-26T05:37:59.438Z,97221.42
2019-06-26T05:39:08.823Z,97223.89
2019-06-26T05:40:16.456Z,97227.02
2019-06-26T05:41:24.445Z,97228.16
2019-06-26T05:42:31.656Z,97232.08
2019-06-26T05:43:39.859Z,97233.38
2019-06-26T05:44:47.069Z,97233.36
2019-06-26T05:45:55.060Z,97232.47
2019-06-26T05:47:02.275Z,97238.25
2019-06-26T05:48:10.278Z,97229.45
2019-06-26T05:49:17.504Z,97236.01
2019-06-26T05:50:25.899Z,97236.84
2019-06-26T05:51:33.116Z,97235.16
2019-06-26T05:52:42.729Z,97234.31
2019-06-26T05:53:50.118Z,97236.07
2019-06-26T05:54:58.117Z,97237.86
2019-06-26T05:56:05.569Z,97240.66
2019-06-26T05:57:13.577Z,97246.40
2019-06-26T05:58:20.794Z,97245.55
2019-06-26T05:59:28.847Z,97239.89
2019-06-26T06:00:36.004Z,97248.31
2019-06-26T06:01:44.012Z,97243.94
2019-06-26T06:02:53.834Z,97243.91
2019-06-26T06:04:00.936Z,97244.55
2019-06-26T06:05:08.706Z,97251.33
2019-06-26T06:06:17.234Z,97252.59
2019-06-26T06:07:24.609Z,97254.06
2019-06-26T06:08:32.640Z,97251.05
2019-06-26T06:09:39.827Z,97254.16
2019-06-26T06:10:47.938Z,97255.13
2019-06-26T06:11:55.149Z,97253.27
2019-06-26T06:13:03.171Z,97251.08
2019-06-26T06:14:10.395Z,97250.22
2019-06-26T06:15:19.123Z,97257.78
2019-06-26T06:16:27.941Z,97252.11
2019-06-26T06:17:35.959Z,97254.41
2019-06-26T06:18:43.190Z,97255.88
2019-06-26T06:19:51.222Z,97261.61
2019-06-26T06:20:58.570Z,97261.25
2019-06-26T06:22:06.694Z,97256.26
2019-06-26T06:23:13.908Z,97259.05
2019-06-26T06:24:21.930Z,97264.69
2019-06-26T06:25:29.123Z,97259.01
2019-06-26T06:26:37.116Z,97261.45
2019-06-26T06:27:44.328Z,97265.57
2019-06-26T06:28:52.365Z,97261.59
2019-06-26T06:29:59.712Z,97255.09
2019-06-26T06:31:07.810Z,97257.06
2019-06-26T06:32:15.065Z,97256.87
2019-06-26T06:33:23.083Z,97263.66
2019-06-26T06:34:30.271Z,97262.25
2019-06-26T06:35:38.290Z,97256.61
2019-06-26T06:36:45.511Z,97264.70
2019-06-26T06:37:53.505Z,97263.30
2019-06-26T06:39:00.714Z,97264.45
2019-06-26T06:40:10.446Z,97265.09
2019-06-26T06:41:17.659Z,97265.22
2019-06-26T06:42:25.667Z,97264.03
2019-06-26T06:43:32.859Z,97265.49
2019-06-26T06:44:40.883Z,97266.42
2019-06-26T06:45:48.108Z,97266.88
2019-06-26T06:47:03.860Z,97263.84
2019-06-26T06:48:05.062Z,97264.59
2019-06-26T06:49:13.074Z,97267.88
2019-06-26T06:50:21.584Z,97266.00
2019-06-26T06:51:29.607Z,97267.14
2019-06-26T06:52:36.862Z,97267.88
2019-06-26T06:53:44.884Z,97277.31
2019-06-26T06:54:52.094Z,97278.59
2019-06-26T06:56:00.071Z,97277.39
2019-06-26T06:57:07.266Z,97280.97
2019-06-26T06:58:15.373Z,97277.97
2019-06-26T06:59:22.664Z,97277.28
2019-06-26T07:00:30.864Z,97285.70
2019-06-26T07:01:38.092Z,97281.84
2019-06-26T07:02:46.114Z,97284.92
2019-06-26T07:03:53.339Z,97290.69
2019-06-26T07:05:01.360Z,97289.48
2019-06-26T07:06:08.752Z,97289.63
2019-06-26T07:07:18.871Z,97293.20
2019-06-26T07:08:26.082Z,97289.66
2019-06-26T07:09:34.093Z,97291.95
2019-06-26T07:10:41.315Z,97288.40
2019-06-26T07:11:49.305Z,97287.48
2019-06-26T07:12:56.529Z,97294.39
2019-06-26T07:14:04.526Z,97292.05
2019-06-26T07:15:12.401Z,97294.64
2019-06-26T07:16:20.416Z,97291.07
2019-06-26T07:17:27.647Z,97295.22
2019-06-26T07:18:35.719Z,97293.51
2019-06-26T07:19:42.970Z,97297.12
2019-06-26T07:20:50.985Z,97303.67
2019-06-26T07:21:58.226Z,97301.45
2019-06-26T07:23:07.302Z,97295.25
2019-06-26T07:24:14.524Z,97295.34
2019-06-26T07:25:22.513Z,97296.61
2019-06-26T07:26:29.729Z,97304.52
2019-06-26T07:27:38.827Z,97300.66
2019-06-26T07:28:46.262Z,97309.55
2019-06-26T07:29:54.284Z,97301.19
2019-06-26T07:31:01.513Z,97302.13
2019-06-26T07:32:09.524Z,97298.58
2019-06-26T07:33:16.743Z,97300.12
2019-06-26T07:34:24.735Z,97300.56
2019-06-26T07:35:31.951Z,97300.20
2019-06-26T07:36:39.940Z,97298.27
2019-06-26T07:37:47.165Z,97303.70
2019-06-26T07:38:55.153Z,97303.64
2019-06-26T07:40:02.589Z,97299.25
2019-06-26T07:41:10.610Z,97302.63
2019-06-26T07:42:17.822Z,97305.42
2019-06-26T07:43:25.841Z,97301.86
2019-06-26T07:44:33.069Z,97300.64
2019-06-26T07:45:41.077Z,97302.89
2019-06-26T07:46:48.315Z,97306.80
2019-06-26T07:47:56.412Z,97309.08
2019-06-26T07:49:03.670Z,97308.97
2019-06-26T07:50:12.106Z,97312.57
2019-06-26T07:51:19.312Z,97310.84
2019-06-26T07:52:27.328Z,97310.26
2019-06-26T07:53:34.553Z,97306.38
2019-06-26T07:54:42.558Z,97314.48
2019-06-26T07:55:50.864Z,97317.38
2019-06-26T07:56:58.885Z,97312.17
2019-06-26T07:58:06.127Z,97310.41
2019-06-26T07:59:14.124Z,97308.69
2019-06-26T08:00:21.767Z,97306.14
2019-06-26T08:01:29.801Z,97314.56
2019-06-26T08:02:37.144Z,97315.47
2019-06-26T08:03:45.947Z,97317.22
2019-06-26T08:04:53.177Z,97313.34
2019-06-26T08:06:01.170Z,97308.95
2019-06-26T08:07:08.385Z,97311.49
2019-06-26T08:08:16.412Z,97316.42
2019-06-26T08:09:23.624Z,97312.34
2019-06-26T08:10:31.631Z,97310.89
2019-06-26T08:11:38.857Z,97314.01
2019-06-26T08:12:46.863Z,97316.78
2019-06-26T08:13:54.103Z,97316.70
2019-06-26T08:15:02.127Z,97312.58
2019-06-26T08:16:09.801Z,97311.35
2019-06-26T08:17:17.791Z,97320.08
2019-06-26T08:18:25.133Z,97313.02
2019-06-26T08:19:33.225Z,97319.25
2019-06-26T08:20:55.118Z,97317.82
2019-06-26T08:21:50.335Z,97316.39
2019-06-26T08:22:57.577Z,97314.03
2019-06-26T08:24:05.585Z,97320.78
2019-06-26T08:25:12.906Z,97316.38
2019-06-26T08:26:20.913Z,97317.00
2019-06-26T08:27:28.137Z,97319.05
2019-06-26T08:28:36.159Z,97313.80
2019-06-26T08:29:43.384Z,97317.73
2019-06-26T08:30:51.407Z,97320.30
2019-06-26T08:31:58.603Z,97321.23
2019-06-26T08:33:06.731Z,97323.98
2019-06-26T08:34:13.924Z,97318.23
2019-06-26T08:35:23.699Z,97314.02
2019-06-26T08:36:30.941Z,97316.28
2019-06-26T08:37:38.934Z,97314.23
2019-06-26T08:38:46.218Z,97316.77
2019-06-26T08:39:54.254Z,97314.20
2019-06-26T08:41:01.483Z,97316.46
2019-06-26T08:42:09.516Z,97318.48
2019-06-26T08:43:16.727Z,97315.09
2019-06-26T08:44:24.791Z,97312.02
2019-06-26T08:45:31.992Z,97313.76
2019-06-26T08:46:40.031Z,97316.02
2019-06-26T08:47:47.299Z,97316.39
2019-06-26T08:48:55.328Z,97321.36
2019-06-26T08:50:02.948Z,97315.60
2019-06-26T08:51:11.226Z,97318.37
2019-06-26T08:52:19.145Z,97319.57
2019-06-26T08:53:27.150Z,97312.99
2019-06-26T08:54:34.362Z,97316.07
2019-06-26T08:55:42.366Z,97315.93
2019-06-26T08:56:49.617Z,97312.84
2019-06-26T08:57:57.617Z,97318.08
2019-06-26T08:59:04.881Z,97323.00
2019-06-26T09:00:15.114Z,97316.39
2019-06-26T09:01:22.554Z,97318.44
2019-06-26T09:02:30.555Z,97315.86
2019-06-26T09:03:41.799Z,97316.27
2019-06-26T09:04:47.795Z,97321.16
2019-06-26T09:05:55.060Z,97318.37
2019-06-26T09:07:03.089Z,97316.95
2019-06-26T09:08:11.485Z,97315.16
2019-06-26T09:09:19.609Z,97319.27
2019-06-26T09:10:26.853Z,97313.29
2019-06-26T09:11:34.858Z,97319.34
2019-06-26T09:12:42.083Z,97317.55
2019-06-26T09:13:50.179Z,97319.08
2019-06-26T09:14:57.391Z,97317.62
2019-06-26T09:16:05.411Z,97320.96
2019-06-26T09:17:12.788Z,97316.83
2019-06-26T09:18:34.823Z,97318.87
2019-06-26T09:19:29.730Z,97319.53
2019-06-26T09:20:41.836Z,97315.95
2019-06-26T09:21:49.060Z,97315.00
2019-06-26T09:22:57.223Z,97318.25
2019-06-26T09:24:04.575Z,97318.13
2019-06-26T09:25:21.499Z,97320.16
2019-06-26T09:26:21.818Z,97319.22
2019-06-26T09:27:29.828Z,97319.27
2019-06-26T09:28:37.077Z,97314.83
2019-06-26T09:29:45.042Z,97316.26
2019-06-26T09:30:52.253Z,97323.09
2019-06-26T09:32:00.250Z,97314.33
2019-06-26T09:33:07.482Z,97319.25
2019-06-26T09:34:15.493Z,97319.64
2019-06-26T09:35:24.157Z,97310.66
2019-06-26T09:38:57.963Z,97311.66
2019-06-26T09:40:04.860Z,97315.97
2019-06-26T09:41:12.859Z,97314.31
2019-06-26T09:42:20.122Z,97315.22
2019-06-26T09:43:28.106Z,97315.67
2019-06-26T09:44:35.348Z,97315.33
2019-06-26T09:45:43.446Z,97313.91
2019-06-26T09:46:50.779Z,97314.41
2019-06-26T09:47:58.795Z,97312.70
2019-06-26T09:49:06.038Z,97315.54
2019-06-26T09:50:14.239Z,97311.17
2019-06-26T09:51:21.480Z,97310.79
2019-06-26T09:52:29.511Z,97309.09
2019-06-26T09:53:46.516Z,97318.09
2019-06-26T09:54:46.357Z,97317.73
2019-06-26T09:55:53.549Z,97314.91
2019-06-26T09:57:01.554Z,97317.75
2019-06-26T09:58:13.030Z,97313.59
2019-06-26T09:59:19.635Z,97314.49
2019-06-26T10:00:27.552Z,97314.32
2019-06-26T10:01:35.558Z,97313.36
2019-06-26T10:02:42.755Z,97314.03
2019-06-26T10:03:50.794Z,97309.84
2019-06-26T10:04:58.027Z,97311.03
2019-06-26T10:06:06.039Z,97305.83
2019-06-26T10:07:13.279Z,97306.47
2019-06-26T10:08:21.464Z,97314.14
2019-06-26T10:09:28.677Z,97311.31
2019-06-26T10:10:36.651Z,97310.13
2019-06-26T10:11:43.849Z,97312.66
2019-06-26T10:12:51.873Z,97307.64
2019-06-26T10:13:59.084Z,97307.48
2019-06-26T10:15:08.061Z,97313.81
2019-06-26T10:16:15.271Z,97308.79
2019-06-26T10:17:23.291Z,97310.28
2019-06-26T10:18:30.507Z,97313.62
2019-06-26T10:19:38.574Z,97306.20
2019-06-26T10:20:45.810Z,97310.08
2019-06-26T10:21:53.833Z,97309.95
2019-06-26T10:23:01.042Z,97305.73
2019-06-26T10:24:09.081Z,97306.86
2019-06-26T10:25:17.630Z,97304.02
2019-06-26T10:26:25.616Z,97304.64
2019-06-26T10:27:32.842Z,97308.28
2019-06-26T10:28:40.835Z,97315.12
2019-06-26T10:29:48.058Z,97305.84
2019-06-26T10:30:56.052Z,97311.64
2019-06-26T10:32:03.275Z,97306.89
2019-06-26T10:33:11.269Z,97313.24
2019-06-26T10:34:18.479Z,97316.59
2019-06-26T10:35:26.492Z,97313.18
2019-06-26T10:36:33.679Z,97313.60
2019-06-26T10:37:41.688Z,97310.20
2019-06-26T10:38:48.896Z,97316.51
2019-06-26T10:39:56.889Z,97313.95
2019-06-26T10:41:04.131Z,97310.24
2019-06-26T10:42:12.139Z,97306.86
2019-06-26T10:43:19.360Z,97305.34
2019-06-26T10:44:27.354Z,97308.69
2019-06-26T10:45:36.236Z,97312.55
2019-06-26T10:46:44.443Z,97308.08
2019-06-26T10:47:51.663Z,97306.84
2019-06-26T10:48:59.677Z,97304.05
2019-06-26T10:50:07.639Z,97302.78
2019-06-26T10:51:15.659Z,97301.79
2019-06-26T10:52:22.901Z,97301.88
2019-06-26T10:53:30.917Z,97294.16
2019-06-26T10:54:38.335Z,97294.83
2019-06-26T10:55:46.350Z,97296.77
2019-06-26T10:56:53.782Z,97299.05
2019-06-26T10:58:01.886Z,97296.47
2019-06-26T10:59:09.109Z,97297.36
2019-06-26T11:00:19.436Z,97299.87
2019-06-26T11:01:26.622Z,97284.89
2019-06-26T11:02:34.630Z,97291.16
2019-06-26T11:03:41.856Z,97290.49
2019-06-26T11:04:49.877Z,97297.09
2019-06-26T11:05:57.119Z,97289.93
2019-06-26T11:07:05.125Z,97290.28
2019-06-26T11:08:15.579Z,97291.22
2019-06-26T11:09:23.584Z,97297.56
2019-06-26T11:10:30.957Z,97284.17
2019-06-26T11:11:40.013Z,97284.30
2019-06-26T11:12:49.061Z,97285.21
2019-06-26T11:13:56.884Z,97285.59
2019-06-26T11:15:04.442Z,97285.68
2019-06-26T11:16:24.880Z,97282.75
2019-06-26T11:17:32.106Z,97284.19
2019-06-26T11:18:40.097Z,97272.59
2019-06-26T11:19:47.338Z,97276.97
2019-06-26T11:20:55.333Z,97277.55
2019-06-26T11:22:02.554Z,97277.39
2019-06-26T11:23:10.597Z,97268.05
2019-06-26T11:24:17.832Z,97272.73
2019-06-26T11:25:25.867Z,97269.59
2019-06-26T11:26:33.079Z,97273.20
2019-06-26T11:27:41.074Z,97272.78
2019-06-26T11:28:48.300Z,97277.19
2019-06-26T11:29:56.305Z,97271.65
2019-06-26T11:31:03.549Z,97275.23
2019-06-26T11:32:11.599Z,97272.08
2019-06-26T11:33:18.809Z,97271.87
2019-06-26T11:34:26.814Z,97269.77
2019-06-26T11:35:34.115Z,97273.63
2019-06-26T11:36:42.123Z,97272.91
2019-06-26T11:37:49.346Z,97275.39
2019-06-26T11:38:57.355Z,97271.66
2019-06-26T11:40:05.814Z,97267.36
2019-06-26T11:41:13.830Z,97272.53
2019-06-26T11:42:21.523Z,97270.14
2019-06-26T11:43:29.535Z,97267.76
2019-06-26T11:44:36.725Z,97268.62
2019-06-26T11:45:45.040Z,97265.98
2019-06-26T11:46:52.256Z,97272.28
2019-06-26T11:48:00.278Z,97276.66
2019-06-26T11:49:07.486Z,97274.86
2019-06-26T11:50:16.304Z,97267.05
2019-06-26T11:51:23.515Z,97266.30
2019-06-26T11:52:31.522Z,97270.67
2019-06-26T11:53:38.745Z,97267.48
2019-06-26T11:55:01.378Z,97269.95
2019-06-26T11:55:55.657Z,97265.41
2019-06-26T11:57:03.697Z,97267.84
2019-06-26T11:58:10.920Z,97266.25
2019-06-26T11:59:18.941Z,97262.75
2019-06-26T12:00:27.821Z,97266.57
2019-06-26T12:01:35.861Z,97270.63
2019-06-26T12:02:43.035Z,97270.13
2019-06-26T12:03:51.040Z,97270.73
2019-06-26T12:04:58.255Z,97269.15
2019-06-26T12:06:17.750Z,97267.27
2019-06-26T12:07:15.388Z,97267.58
2019-06-26T12:08:23.405Z,97268.65
2019-06-26T12:09:30.696Z,97263.81
2019-06-26T12:10:38.720Z,97264.64
2019-06-26T12:11:45.920Z,97264.89
2019-06-26T12:12:53.919Z,97260.08
2019-06-26T12:14:01.129Z,97267.14
2019-06-26T12:15:10.095Z,97263.37
2019-06-26T12:16:17.336Z,97258.21
2019-06-26T12:17:25.342Z,97263.38
2019-06-26T12:18:32.555Z,97275.00
2019-06-26T12:19:40.544Z,97262.02
2019-06-26T12:20:47.802Z,97260.13
2019-06-26T12:21:55.828Z,97254.99
2019-06-26T12:23:03.037Z,97257.70
2019-06-26T12:24:11.041Z,97257.98
2019-06-26T12:25:18.264Z,97260.14
2019-06-26T12:26:26.288Z,97258.79
2019-06-26T12:27:33.541Z,97258.79
2019-06-26T12:28:41.563Z,97260.69
2019-06-26T12:29:49.838Z,97260.95
2019-06-26T12:30:57.842Z,97255.00
2019-06-26T12:32:05.132Z,97253.12
2019-06-26T12:33:13.152Z,97254.19
2019-06-26T12:34:20.378Z,97253.16
2019-06-26T12:35:28.374Z,97256.95
2019-06-26T12:36:35.609Z,97258.05
2019-06-26T12:37:43.593Z,97252.65
2019-06-26T12:38:50.956Z,97252.09
2019-06-26T12:39:59.058Z,97254.00
2019-06-26T12:41:06.273Z,97254.01
2019-06-26T12:42:14.266Z,97254.53
2019-06-26T12:43:21.521Z,97258.59
2019-06-26T12:44:29.497Z,97255.62
2019-06-26T12:45:36.718Z,97245.59
2019-06-26T12:46:44.708Z,97247.25
2019-06-26T12:47:51.951Z,97246.14
2019-06-26T12:48:59.986Z,97245.05
2019-06-26T12:50:08.352Z,97243.69
2019-06-26T12:51:16.359Z,97246.40
2019-06-26T12:52:24.653Z,97247.76
2019-06-26T12:53:32.715Z,97253.21
2019-06-26T12:54:39.962Z,97248.88
2019-06-26T12:55:47.963Z,97248.34
2019-06-26T12:56:55.203Z,97252.11
2019-06-26T12:58:13.642Z,97248.31
2019-06-26T12:59:12.136Z,97248.59
2019-06-26T13:00:20.546Z,97238.30
2019-06-26T13:01:27.739Z,97232.61
2019-06-26T13:02:36.839Z,97236.92
2019-06-26T13:03:44.064Z,97236.93
2019-06-26T13:04:52.059Z,97233.38
2019-06-26T13:05:59.284Z,97241.54
2019-06-26T13:07:07.292Z,97243.14
2019-06-26T13:08:14.529Z,97236.09
2019-06-26T13:09:22.540Z,97232.02
2019-06-26T13:10:29.973Z,97235.51
2019-06-26T13:11:38.051Z,97240.12
2019-06-26T13:12:46.047Z,97233.06
2019-06-26T13:14:02.674Z,97229.81
2019-06-26T13:15:03.149Z,97234.92
2019-06-26T13:16:11.224Z,97230.05
2019-06-26T13:17:18.414Z,97228.41
2019-06-26T13:18:26.418Z,97228.41
2019-06-26T13:19:34.818Z,97218.36
2019-06-26T13:20:52.636Z,97219.17
2019-06-26T13:21:51.729Z,97219.72
2019-06-26T13:22:59.732Z,97220.53